createdAt,value
2017-11-20T00:01:23.938Z,4.85
2017-11-20T00:03:51.378Z,5.40
2017-11-20T00:06:18.814Z,4.80
2017-11-20T00:08:46.239Z,4.43
2017-11-20T00:11:13.682Z,4.60
2017-11-20T00:13:41.106Z,5.43
2017-11-20T00:16:08.553Z,5.30
2017-11-20T00:18:35.998Z,4.82
2017-11-20T00:21:03.431Z,5.68
2017-11-20T00:23:31.629Z,5.00
2017-11-20T00:25:59.071Z,5.10
2017-11-20T00:28:26.516Z,7.50
2017-11-20T00:30:53.941Z,5.10
2017-11-20T00:33:21.400Z,5.57
2017-11-20T00:35:48.893Z,5.32
2017-11-20T00:38:17.143Z,5.57
2017-11-20T00:40:45.367Z,4.43
2017-11-20T00:43:12.797Z,5.03
2017-11-20T00:45:40.289Z,5.35
2017-11-20T00:48:07.721Z,5.15
2017-11-20T00:50:35.162Z,5.32
2017-11-20T00:53:03.394Z,5.25
2017-11-20T00:55:30.828Z,5.65
2017-11-20T00:57:58.278Z,6.10
2017-11-20T01:00:25.705Z,5.75
2017-11-20T01:02:53.204Z,5.22
2017-11-20T01:05:21.388Z,5.75
2017-11-20T01:07:48.908Z,5.50
2017-11-20T01:10:16.336Z,4.60
2017-11-20T01:12:43.794Z,4.93
2017-11-20T01:15:11.220Z,5.00
2017-11-20T01:17:38.776Z,5.15
2017-11-20T01:20:06.229Z,6.20
2017-11-20T01:22:33.659Z,5.40
2017-11-20T01:25:01.081Z,5.87
2017-11-20T01:27:28.515Z,5.60
2017-11-20T01:29:55.955Z,5.18
2017-11-20T01:32:23.473Z,6.40
2017-11-20T01:34:50.898Z,4.97
2017-11-20T01:37:19.093Z,6.30
2017-11-20T01:39:46.532Z,5.93
2017-11-20T01:42:13.972Z,5.72
2017-11-20T01:44:41.458Z,5.82
2017-11-20T01:47:08.899Z,6.25
2017-11-20T01:49:36.364Z,6.30
2017-11-20T01:52:03.791Z,6.00
2017-11-20T01:54:31.225Z,5.60
2017-11-20T01:56:58.657Z,5.40
2017-11-20T01:59:26.106Z,6.68
2017-11-20T02:01:53.535Z,6.15
2017-11-20T02:04:20.969Z,6.65
2017-11-20T02:06:48.397Z,6.15
2017-11-20T02:09:15.880Z,5.68
2017-11-20T02:11:43.323Z,6.28
2017-11-20T02:14:10.758Z,5.80
2017-11-20T02:16:38.210Z,6.80
2017-11-20T02:19:05.849Z,6.18
2017-11-20T02:21:33.265Z,5.62
2017-11-20T02:24:00.710Z,6.28
2017-11-20T02:26:28.150Z,6.25
2017-11-20T02:28:55.628Z,5.68
2017-11-20T02:31:23.045Z,5.90
2017-11-20T02:33:50.476Z,5.62
2017-11-20T02:36:17.913Z,6.03
2017-11-20T02:38:45.353Z,5.97
2017-11-20T02:41:12.788Z,6.75
2017-11-20T02:43:40.219Z,5.50
2017-11-20T02:46:07.665Z,6.45
2017-11-20T02:48:35.089Z,7.43
2017-11-20T02:51:03.296Z,6.22
2017-11-20T02:53:30.728Z,6.97
2017-11-20T02:55:58.167Z,7.00
2017-11-20T02:58:25.724Z,6.65
2017-11-20T03:00:53.302Z,6.12
2017-11-20T03:03:20.773Z,6.93
2017-11-20T03:05:48.984Z,6.40
2017-11-20T03:08:16.481Z,7.18
2017-11-20T03:10:44.710Z,6.60
2017-11-20T03:13:12.332Z,6.93
2017-11-20T03:15:39.811Z,7.87
2017-11-20T03:18:07.239Z,7.30
2017-11-20T03:20:34.684Z,6.80
2017-11-20T03:23:02.117Z,6.57
2017-11-20T03:25:29.564Z,6.28
2017-11-20T03:27:57.187Z,6.40
2017-11-20T03:30:24.621Z,7.40
2017-11-20T03:32:52.058Z,6.25
2017-11-20T03:35:19.489Z,6.00
2017-11-20T03:37:46.939Z,5.70
2017-11-20T03:40:14.442Z,6.07
2017-11-20T03:42:41.872Z,6.32
2017-11-20T03:45:09.317Z,6.57
2017-11-20T03:47:36.766Z,7.20
2017-11-20T03:50:04.185Z,7.25
2017-11-20T03:52:31.626Z,6.50
2017-11-20T03:54:59.081Z,6.43
2017-11-20T03:57:26.514Z,7.37
2017-11-20T03:59:53.953Z,7.50
2017-11-20T04:02:21.407Z,7.37
2017-11-20T04:04:48.851Z,6.62
2017-11-20T04:07:16.306Z,6.97
2017-11-20T04:09:43.737Z,6.45
2017-11-20T04:12:11.177Z,7.28
2017-11-20T04:14:38.606Z,8.02
2017-11-20T04:17:06.072Z,7.78
2017-11-20T04:19:33.485Z,7.72
2017-11-20T04:22:00.930Z,6.62
2017-11-20T04:24:28.378Z,6.95
2017-11-20T04:26:55.789Z,7.43
2017-11-20T04:29:23.233Z,7.93
2017-11-20T04:31:50.676Z,7.03
2017-11-20T04:34:18.109Z,7.00
2017-11-20T04:36:45.552Z,7.12
2017-11-20T04:39:12.994Z,7.30
2017-11-20T04:41:40.421Z,7.65
2017-11-20T04:44:08.637Z,7.62
2017-11-20T04:46:36.071Z,8.13
2017-11-20T04:49:03.515Z,7.60
2017-11-20T04:51:30.941Z,7.12
2017-11-20T04:53:58.388Z,7.93
2017-11-20T04:56:25.958Z,7.87
2017-11-20T04:58:53.403Z,8.13
2017-11-20T05:01:20.944Z,8.27
2017-11-20T05:03:49.138Z,8.35
2017-11-20T05:06:17.338Z,8.73
2017-11-20T05:08:44.781Z,8.00
2017-11-20T05:11:12.218Z,9.25
2017-11-20T05:13:39.659Z,8.45
2017-11-20T05:16:07.117Z,9.13
2017-11-20T05:18:34.544Z,9.40
2017-11-20T05:21:01.978Z,10.40
2017-11-20T05:23:29.428Z,9.90
2017-11-20T05:25:56.865Z,8.73
2017-11-20T05:28:24.306Z,9.25
2017-11-20T05:30:51.751Z,7.40
2017-11-20T05:33:19.182Z,9.35
2017-11-20T05:35:46.624Z,8.82
2017-11-20T05:38:14.048Z,8.98
2017-11-20T05:40:42.451Z,9.85
2017-11-20T05:43:09.937Z,10.77
2017-11-20T05:45:37.379Z,12.88
2017-11-20T05:48:04.817Z,13.50
2017-11-20T05:50:32.260Z,10.02
2017-11-20T05:52:59.744Z,8.45
2017-11-20T05:55:28.039Z,9.38
2017-11-20T05:57:55.460Z,9.07
2017-11-20T06:00:22.913Z,9.55
2017-11-20T06:02:50.389Z,8.85
2017-11-20T06:05:17.846Z,7.90
2017-11-20T06:07:45.282Z,8.98
2017-11-20T06:10:12.824Z,9.10
2017-11-20T06:12:40.269Z,9.80
2017-11-20T06:15:07.699Z,9.52
2017-11-20T06:17:35.965Z,8.60
2017-11-20T06:20:03.465Z,8.60
2017-11-20T06:22:30.913Z,7.57
2017-11-20T06:24:58.337Z,7.72
2017-11-20T06:27:25.782Z,8.02
2017-11-20T06:29:53.213Z,8.18
2017-11-20T06:32:21.722Z,8.63
2017-11-20T06:34:49.172Z,8.38
2017-11-20T06:37:16.624Z,8.38
2017-11-20T06:39:44.086Z,8.23
2017-11-20T06:42:11.525Z,6.97
2017-11-20T06:44:39.781Z,8.52
2017-11-20T06:47:07.268Z,8.05
2017-11-20T06:49:34.785Z,8.80
2017-11-20T06:52:02.231Z,8.30
2017-11-20T06:54:29.653Z,7.80
2017-11-20T06:56:57.095Z,7.90
2017-11-20T06:59:25.292Z,8.05
2017-11-20T07:01:52.738Z,7.87
2017-11-20T07:04:20.188Z,7.87
2017-11-20T07:06:47.763Z,9.15
2017-11-20T07:09:15.245Z,8.20
2017-11-20T07:11:42.673Z,8.05
2017-11-20T07:14:10.149Z,7.90
2017-11-20T07:16:38.352Z,7.20
2017-11-20T07:19:05.790Z,11.65
2017-11-20T07:21:33.221Z,9.70
2017-11-20T07:24:00.822Z,9.10
2017-11-20T07:26:40.161Z,8.55
2017-11-20T07:29:20.285Z,8.65
2017-11-20T07:31:47.811Z,7.62
2017-11-20T07:34:27.152Z,7.65
2017-11-20T07:37:18.077Z,7.45
2017-11-20T07:39:57.262Z,7.40
2017-11-20T07:42:25.509Z,6.85
2017-11-20T07:44:52.987Z,8.63
2017-11-20T07:47:21.178Z,7.50
2017-11-20T07:49:48.668Z,7.75
2017-11-20T07:52:16.884Z,8.02
2017-11-20T07:54:44.365Z,7.03
2017-11-20T07:57:11.826Z,6.75
2017-11-20T07:59:41.086Z,7.32
2017-11-20T08:02:08.522Z,7.00
2017-11-20T09:26:33.126Z,6.90
2017-11-20T09:29:00.625Z,5.60
2017-11-20T09:31:28.049Z,7.87
2017-11-20T09:33:55.511Z,6.37
2017-11-20T09:36:22.950Z,8.60
2017-11-20T09:38:50.398Z,6.28
2017-11-20T09:41:17.839Z,5.60
2017-11-20T09:43:45.977Z,8.15
2017-11-20T09:46:13.418Z,7.78
2017-11-20T09:48:40.879Z,8.63
2017-11-20T09:51:08.317Z,8.63
2017-11-20T09:53:35.806Z,8.07
2017-11-20T09:56:03.233Z,7.75
2017-11-20T09:58:31.447Z,9.07
2017-11-20T10:00:58.886Z,9.00
2017-11-20T10:03:26.321Z,8.13
2017-11-20T10:05:53.779Z,8.98
2017-11-20T10:08:21.204Z,8.00
2017-11-20T10:10:48.660Z,8.65
2017-11-20T10:13:16.082Z,10.57
2017-11-20T10:15:43.535Z,10.00
2017-11-20T10:18:10.964Z,8.07
2017-11-20T10:20:38.405Z,7.65
2017-11-20T10:23:05.838Z,8.70
2017-11-20T10:25:33.309Z,9.32
2017-11-20T10:28:00.750Z,9.70
2017-11-20T10:30:28.231Z,9.23
2017-11-20T10:32:55.664Z,9.23
2017-11-20T10:35:23.117Z,10.20
2017-11-20T10:37:50.645Z,8.40
2017-11-20T10:40:18.102Z,8.07
2017-11-20T10:42:45.533Z,8.50
2017-11-20T10:45:13.001Z,9.75
2017-11-20T10:47:41.210Z,8.75
2017-11-20T10:50:08.683Z,8.90
2017-11-20T10:52:36.174Z,8.65
2017-11-20T10:55:03.634Z,6.93
2017-11-20T10:57:31.090Z,9.52
2017-11-20T10:59:58.554Z,8.90
2017-11-20T11:02:25.990Z,7.90
2017-11-20T11:04:53.425Z,8.75
2017-11-20T11:07:20.884Z,8.52
2017-11-20T11:09:48.323Z,8.40
2017-11-20T11:12:15.749Z,9.15
2017-11-20T11:14:43.187Z,9.25
2017-11-20T11:17:10.669Z,8.65
2017-11-20T11:19:39.318Z,9.75
2017-11-20T11:22:06.781Z,9.02
2017-11-20T11:24:34.981Z,8.88
2017-11-20T11:27:02.417Z,8.75
2017-11-20T11:29:29.917Z,9.30
2017-11-20T11:31:57.358Z,8.98
2017-11-20T11:34:24.789Z,8.85
2017-11-20T11:36:53.777Z,7.50
2017-11-20T11:39:21.330Z,8.95
2017-11-20T11:41:48.801Z,10.45
2017-11-20T11:44:16.271Z,8.63
2017-11-20T11:46:43.692Z,8.95
2017-11-20T11:49:11.140Z,8.95
2017-11-20T11:51:39.285Z,10.32
2017-11-20T11:54:06.718Z,8.80
2017-11-20T11:56:34.962Z,9.40
2017-11-20T11:59:02.422Z,10.50
2017-11-20T12:01:30.621Z,8.48
2017-11-20T12:03:58.248Z,8.55
2017-11-20T12:06:25.672Z,8.88
2017-11-20T12:08:53.889Z,9.27
2017-11-20T12:11:21.338Z,8.15
2017-11-20T12:13:48.765Z,8.18
2017-11-20T12:16:16.230Z,7.20
2017-11-20T12:18:43.678Z,8.30
2017-11-20T12:21:11.117Z,7.60
2017-11-20T12:23:38.902Z,8.02
2017-11-20T12:26:06.416Z,8.15
2017-11-20T12:28:33.858Z,8.55
2017-11-20T12:31:01.297Z,7.93
2017-11-20T12:33:28.743Z,8.88
2017-11-20T12:35:56.303Z,7.85
2017-11-20T12:38:24.510Z,8.40
2017-11-20T12:40:51.981Z,8.13
2017-11-20T12:43:19.414Z,7.95
2017-11-20T12:45:46.983Z,7.20
2017-11-20T12:48:14.423Z,9.13
2017-11-20T12:50:41.859Z,7.40
2017-11-20T12:53:09.298Z,7.68
2017-11-20T12:55:36.818Z,6.80
2017-11-20T12:58:04.245Z,7.40
2017-11-20T13:00:31.689Z,7.72
2017-11-20T13:02:59.205Z,7.93
2017-11-20T13:05:27.433Z,8.02
2017-11-20T13:07:54.861Z,7.25
2017-11-20T13:10:22.288Z,8.40
2017-11-20T13:12:49.734Z,7.62
2017-11-20T13:15:17.277Z,7.12
2017-11-20T13:17:44.749Z,6.35
2017-11-20T13:20:12.174Z,7.28
2017-11-20T13:22:40.378Z,7.25
2017-11-20T13:25:08.573Z,6.65
2017-11-20T13:27:36.028Z,6.47
2017-11-20T13:30:03.449Z,6.47
2017-11-20T13:32:30.924Z,6.97
2017-11-20T13:34:58.363Z,6.78
2017-11-20T13:37:25.803Z,7.37
2017-11-20T13:39:53.263Z,6.47
2017-11-20T13:42:20.718Z,6.53
2017-11-20T13:44:48.161Z,7.05
2017-11-20T13:47:15.598Z,6.28
2017-11-20T13:49:43.021Z,6.28
2017-11-20T13:52:10.458Z,6.30
2017-11-20T13:54:37.902Z,6.90
2017-11-20T13:57:05.371Z,6.10
2017-11-20T13:59:32.813Z,6.90
2017-11-20T14:02:00.236Z,6.65
2017-11-20T14:04:27.673Z,6.28
2017-11-20T14:06:55.173Z,6.78
2017-11-20T14:09:23.377Z,7.03
2017-11-20T14:11:50.843Z,5.85
2017-11-20T14:14:18.295Z,6.35
2017-11-20T14:16:45.731Z,6.37
2017-11-20T14:19:13.164Z,6.30
2017-11-20T14:21:40.602Z,5.65
2017-11-20T14:24:08.043Z,5.28
2017-11-20T14:26:35.489Z,6.35
2017-11-20T14:29:03.432Z,6.07
2017-11-20T14:31:30.858Z,6.30
2017-11-20T14:33:58.298Z,6.18
2017-11-20T14:36:25.795Z,7.35
2017-11-20T14:38:53.237Z,5.85
2017-11-20T14:41:20.665Z,6.97
2017-11-20T14:43:48.161Z,6.47
2017-11-20T14:46:15.639Z,5.50
2017-11-20T14:48:43.078Z,6.03
2017-11-20T14:54:16.914Z,7.25
2017-11-20T14:56:47.617Z,7.47
2017-11-20T14:59:15.813Z,7.60
2017-11-20T15:01:46.674Z,8.02
2017-11-20T15:04:14.105Z,6.50
2017-11-20T15:06:41.541Z,6.78
2017-11-20T15:09:08.982Z,7.53
2017-11-20T15:11:36.434Z,6.87
2017-11-20T15:14:03.872Z,8.13
2017-11-20T15:16:31.329Z,9.65
2017-11-20T15:18:59.602Z,8.13
2017-11-20T15:21:27.821Z,10.13
2017-11-20T15:23:55.251Z,8.93
2017-11-20T15:26:22.693Z,9.88
2017-11-20T15:28:50.173Z,9.63
2017-11-20T15:31:17.616Z,10.38
2017-11-20T15:33:45.056Z,10.05
2017-11-20T15:36:12.600Z,10.32
2017-11-20T15:38:40.029Z,10.40
2017-11-20T15:41:07.498Z,11.57
2017-11-20T15:43:35.031Z,12.25
2017-11-20T15:46:02.472Z,10.25
2017-11-20T15:48:30.010Z,10.13
2017-11-20T15:50:57.462Z,10.02
2017-11-20T15:53:24.910Z,10.85
2017-11-20T15:55:52.457Z,10.88
2017-11-20T15:58:19.914Z,11.10
2017-11-20T16:00:47.351Z,10.27
2017-11-20T16:03:14.893Z,10.25
2017-11-20T16:05:42.387Z,12.37
2017-11-20T16:08:09.815Z,9.77
2017-11-20T16:10:37.332Z,10.30
2017-11-20T16:13:04.773Z,10.13
2017-11-20T16:15:32.205Z,9.60
2017-11-20T16:17:59.652Z,10.52
2017-11-20T16:20:27.089Z,10.10
2017-11-20T16:22:54.546Z,11.35
2017-11-20T16:25:21.973Z,12.23
2017-11-20T16:27:49.430Z,12.93
2017-11-20T16:30:16.861Z,11.52
2017-11-20T16:32:44.303Z,11.00
2017-11-20T16:35:11.829Z,10.50
2017-11-20T16:37:39.286Z,9.88
2017-11-20T16:40:06.932Z,11.57
2017-11-20T16:42:34.379Z,10.23
2017-11-20T16:45:01.823Z,11.48
2017-11-20T16:47:29.264Z,9.38
2017-11-20T16:49:56.711Z,9.57
2017-11-20T16:52:24.138Z,9.40
2017-11-20T16:54:51.587Z,8.88
2017-11-20T16:57:30.888Z,9.75
2017-11-20T16:59:58.350Z,10.35
2017-11-20T17:02:37.914Z,9.10
2017-11-20T17:05:05.519Z,10.57
2017-11-20T17:07:32.951Z,9.90
2017-11-20T17:10:00.390Z,9.00
2017-11-20T17:12:27.821Z,8.88
2017-11-20T17:14:55.265Z,9.57
2017-11-20T17:17:22.741Z,10.50
2017-11-20T17:19:50.956Z,11.95
2017-11-20T17:22:18.445Z,10.00
2017-11-20T17:24:46.035Z,10.00
2017-11-20T17:27:13.488Z,11.20
2017-11-20T17:29:40.968Z,9.70
2017-11-20T17:32:08.394Z,10.02
2017-11-20T17:34:35.838Z,9.90
2017-11-20T17:37:03.286Z,10.93
2017-11-20T17:39:30.725Z,11.00
2017-11-20T17:41:58.156Z,10.93
2017-11-20T17:44:25.595Z,10.32
2017-11-20T17:46:53.071Z,10.70
2017-11-20T17:49:20.496Z,9.63
2017-11-20T17:51:48.750Z,9.20
2017-11-20T17:54:16.193Z,9.15
2017-11-20T17:56:43.920Z,8.98
2017-11-20T17:59:11.365Z,10.10
2017-11-20T18:01:38.821Z,9.45
2017-11-20T18:04:06.245Z,8.32
2017-11-20T18:06:33.814Z,8.00
2017-11-20T18:09:02.241Z,7.62
2017-11-20T18:11:30.477Z,9.32
2017-11-20T18:13:57.952Z,7.60
2017-11-20T18:16:26.133Z,7.53
2017-11-20T18:18:53.569Z,7.72
2017-11-20T18:21:21.004Z,7.20
2017-11-20T18:23:48.443Z,8.02
2017-11-20T18:26:15.904Z,7.53
2017-11-20T18:28:43.489Z,6.60
2017-11-20T18:31:10.922Z,7.87
2017-11-20T18:33:38.365Z,6.65
2017-11-20T18:36:06.566Z,7.07
2017-11-20T18:38:35.781Z,7.43
2017-11-20T18:41:03.257Z,6.30
2017-11-20T18:43:30.685Z,5.95
2017-11-20T18:45:58.133Z,7.40
2017-11-20T18:48:25.573Z,6.75
2017-11-20T18:50:53.068Z,7.95
2017-11-20T18:53:21.311Z,9.52
2017-11-20T18:55:48.852Z,8.20
2017-11-20T18:58:16.278Z,7.05
2017-11-20T19:00:56.448Z,7.45
2017-11-20T19:03:26.538Z,6.82
2017-11-20T19:06:05.925Z,6.75
2017-11-20T19:11:33.769Z,5.03
2017-11-20T19:14:01.229Z,4.82
2017-11-20T19:16:28.675Z,5.53
2017-11-20T19:18:56.145Z,5.57
2017-11-20T19:21:23.568Z,6.57
2017-11-20T19:23:51.014Z,6.25
2017-11-20T19:26:18.437Z,6.65
2017-11-20T19:28:45.878Z,7.43
2017-11-20T19:31:13.334Z,8.65
2017-11-20T19:33:40.771Z,6.60
2017-11-20T19:36:08.201Z,7.05
2017-11-20T19:38:35.698Z,7.40
2017-11-20T19:41:03.233Z,8.35
2017-11-20T19:43:30.666Z,7.35
2017-11-20T19:45:58.107Z,7.10
2017-11-20T19:48:25.584Z,7.90
2017-11-20T19:50:53.109Z,8.05
2017-11-20T19:53:20.548Z,8.40
2017-11-20T19:55:47.991Z,7.87
2017-11-20T19:58:15.454Z,9.05
2017-11-20T20:00:42.885Z,8.93
2017-11-20T20:03:10.354Z,7.85
2017-11-20T20:05:38.565Z,6.55
2017-11-20T20:08:06.074Z,6.85
2017-11-20T20:10:34.589Z,7.37
2017-11-20T20:13:02.133Z,7.65
2017-11-20T20:15:41.504Z,6.57
2017-11-20T20:18:08.937Z,8.23
2017-11-20T20:20:37.156Z,7.55
2017-11-20T20:23:04.583Z,8.55
2017-11-20T20:25:32.034Z,8.55
2017-11-20T20:27:59.474Z,9.10
2017-11-20T20:30:26.950Z,8.57
2017-11-20T20:32:54.383Z,8.38
2017-11-20T20:35:21.900Z,8.63
2017-11-20T20:37:49.420Z,8.50
2017-11-20T20:40:16.872Z,7.93
2017-11-20T20:42:44.303Z,7.55
2017-11-20T20:45:11.739Z,8.85
2017-11-20T20:47:39.246Z,10.60
2017-11-20T20:50:06.729Z,8.60
2017-11-20T20:52:34.175Z,7.97
2017-11-20T20:55:01.940Z,7.70
2017-11-20T20:57:30.541Z,6.72
2017-11-20T20:59:58.021Z,6.80
2017-11-20T21:02:26.284Z,7.15
2017-11-20T21:04:54.513Z,6.85
2017-11-20T21:07:21.974Z,7.20
2017-11-20T21:09:55.756Z,7.10
2017-11-20T21:12:23.217Z,6.07
2017-11-20T21:14:51.520Z,6.45
2017-11-20T21:17:19.037Z,7.75
2017-11-20T21:19:47.346Z,7.32
2017-11-20T21:22:14.917Z,8.57
2017-11-20T21:24:43.138Z,7.07
2017-11-20T21:27:10.569Z,7.62
2017-11-20T21:29:38.029Z,7.05
2017-11-20T21:32:05.452Z,7.10
2017-11-20T21:34:32.896Z,6.47
2017-11-20T21:37:00.334Z,6.70
2017-11-20T21:39:27.775Z,6.43
2017-11-20T21:41:55.213Z,6.53
2017-11-20T21:44:22.640Z,6.47
2017-11-20T21:46:50.082Z,5.43
2017-11-20T21:49:17.517Z,6.35
2017-11-20T21:51:45.746Z,6.95
2017-11-20T21:54:13.172Z,6.55
2017-11-20T21:56:40.637Z,6.05
2017-11-20T21:59:08.085Z,6.12
2017-11-20T22:01:35.528Z,9.23
2017-11-20T22:04:02.968Z,6.87
2017-11-20T22:06:30.505Z,5.50
2017-11-20T22:08:57.940Z,4.90
2017-11-20T22:11:25.383Z,5.78
2017-11-20T22:13:52.821Z,7.90
2017-11-20T22:16:20.280Z,6.50
2017-11-20T22:18:47.754Z,6.40
2017-11-20T22:21:15.207Z,6.30
2017-11-20T22:23:43.412Z,6.32
2017-11-20T22:26:10.844Z,6.40
2017-11-20T22:28:38.283Z,6.32
2017-11-20T22:31:05.781Z,6.95
2017-11-20T22:33:33.214Z,6.78
2017-11-20T22:36:00.672Z,6.03
2017-11-20T22:38:28.093Z,5.60
2017-11-20T22:40:55.565Z,7.12
2017-11-20T22:43:23.094Z,7.55
2017-11-20T22:45:50.571Z,7.80
2017-11-20T22:48:18.009Z,7.00
2017-11-20T22:50:46.209Z,6.20
2017-11-20T22:53:13.655Z,6.30
2017-11-20T22:55:41.086Z,6.55
2017-11-20T22:58:08.552Z,6.50
2017-11-20T23:00:36.013Z,6.28
2017-11-20T23:03:03.521Z,7.30
2017-11-20T23:05:30.975Z,6.45
2017-11-20T23:07:58.394Z,7.97
2017-11-20T23:10:25.836Z,6.97
2017-11-20T23:12:53.317Z,6.82
2017-11-20T23:15:20.833Z,7.15
2017-11-20T23:17:48.344Z,6.93
2017-11-20T23:20:15.788Z,6.78
2017-11-20T23:22:43.995Z,13.02
2017-11-20T23:25:11.517Z,7.22
2017-11-20T23:27:38.945Z,7.65
2017-11-20T23:30:06.490Z,6.82
2017-11-20T23:32:33.998Z,6.10
2017-11-20T23:35:01.536Z,7.03
2017-11-20T23:37:28.971Z,7.15
2017-11-20T23:39:56.415Z,7.57
2017-11-20T23:42:23.842Z,7.82
2017-11-20T23:44:51.286Z,6.37
2017-11-20T23:47:18.717Z,7.40
2017-11-20T23:49:46.175Z,8.02
2017-11-20T23:52:13.602Z,7.00
2017-11-20T23:54:41.041Z,7.80
2017-11-20T23:57:08.479Z,7.70
2017-11-20T23:59:35.930Z,8.02
